Smethport, Pennsylvania
Current Conditions -  °F | °C
As of 7:53 AM on Thursday 27 Nov 2014 (Local Time) from KBFD Reporting Station
Light Snow Light Snow  
Wind Chill: 25°   Ceiling: 800
Heat Index: 25°   Visibility: 4mi
Dew Point: 22°   Wind: 3mph
Humidity: 88%   Direction: 50°NE
Pressure: 29.96"   Gusts: NA
Location:  41.81°N, 78.44°W
Report Text: KBFD 271253Z AUTO 05003KT 4SM -SN BR OVC008 M04/M06 A2996 RMK AO2 SNB41 CIG 006V011 SLP170 P0000 T10391056
Loading
Personal Weather Stations






























Interactive Weather Map New forecast layout! Learn more

10-Day Weather Forecast

Advertisements
Track Severe Weather on mobile